Time;durP1;ratioP1;P1;durP2;ratioP2;P2;SDS_P1;SDS_P2;PMS_P1;PMS_P2;Temp;Humidity;BMP_temperature;BMP_pressure;BME280_temperature;BME280_humidity;BME280_pressure;Samples;Min_cycle;Max_cycle;Signal;HPM_P1;HPM_P2
2022/01/08 00:01:36;;;;;;;19.60;9.38;;;;;;;;;;4986376;28;92176;-67
2022/01/08 00:04:03;;;;;;;19.30;8.98;;;;;;;;;;4988676;28;93028;-68
2022/01/08 00:06:29;;;;;;;11.82;8.68;;;;;;;;;;4985549;28;93877;-68
2022/01/08 00:08:56;;;;;;;18.48;9.38;;;;;;;;;;4980633;28;94837;-67
2022/01/08 00:11:25;;;;;;;20.60;8.60;;;;;;;;;;4981696;28;94597;-67
2022/01/08 00:13:52;;;;;;;14.80;8.88;;;;;;;;;;4983052;28;93210;-67
2022/01/08 00:16:18;;;;;;;14.43;8.30;;;;;;;;;;4982084;28;93190;-67
2022/01/08 00:18:45;;;;;;;15.00;9.32;;;;;;;;;;4981307;28;94316;-67
2022/01/08 00:21:11;;;;;;;14.65;8.88;;;;;;;;;;4980439;28;93993;-67
2022/01/08 00:23:38;;;;;;;13.00;8.82;;;;;;;;;;4981303;28;93186;-67
2022/01/08 00:26:06;;;;;;;17.38;10.07;;;;;;;;;;4981825;28;92767;-67
2022/01/08 00:28:32;;;;;;;19.02;8.90;;;;;;;;;;4986506;28;93289;-67
2022/01/08 00:30:59;;;;;;;13.40;8.82;;;;;;;;;;4984792;28;93976;-67
2022/01/08 00:33:25;;;;;;;24.58;9.52;;;;;;;;;;4977391;28;96266;-67
2022/01/08 00:35:51;;;;;;;17.08;8.93;;;;;;;;;;4981943;28;96462;-68
2022/01/08 00:38:18;;;;;;;14.60;9.13;;;;;;;;;;4980421;28;94059;-68
2022/01/08 00:40:44;;;;;;;16.67;8.85;;;;;;;;;;4982154;28;92480;-67
2022/01/08 00:43:10;;;;;;;18.88;9.07;;;;;;;;;;4982795;28;94786;-67
2022/01/08 00:45:37;;;;;;;12.30;9.15;;;;;;;;;;4985677;28;94052;-67
2022/01/08 00:48:03;;;;;;;18.05;9.45;;;;;;;;;;4988792;28;92497;-66
2022/01/08 00:50:30;;;;;;;15.80;8.45;;;;;;;;;;4984766;28;93451;-67
2022/01/08 00:52:56;;;;;;;19.45;9.70;;;;;;;;;;4980929;28;92543;-66
2022/01/08 00:55:23;;;;;;;17.75;9.30;;;;;;;;;;4981641;28;93969;-67
2022/01/08 00:57:49;;;;;;;21.17;9.73;;;;;;;;;;4972748;28;97049;-67
2022/01/08 01:00:15;;;;;;;19.30;7.68;;;;;;;;;;4989441;28;92489;-66
2022/01/08 01:02:42;;;;;;;19.75;8.35;;;;;;;;;;4983656;28;95950;-67
2022/01/08 01:05:09;;;;;;;14.23;9.15;;;;;;;;;;4976717;28;94242;-66
2022/01/08 01:07:35;;;;;;;8.70;7.63;;;;;;;;;;4975871;28;92571;-66
2022/01/08 01:10:02;;;;;;;21.15;8.25;;;;;;;;;;4977344;28;94339;-67
2022/01/08 01:12:29;;;;;;;13.50;7.70;;;;;;;;;;4976630;28;93688;-67
2022/01/08 01:15:07;;;;;;;16.77;8.43;;;;;;;;;;4980780;28;93195;-67
2022/01/08 01:17:33;;;;;;;10.20;6.95;;;;;;;;;;4982449;28;94490;-67
2022/01/08 01:19:59;;;;;;;18.00;7.70;;;;;;;;;;4983024;28;92940;-66
2022/01/08 01:22:31;;;;;;;12.57;7.00;;;;;;;;;;4980282;28;95192;-67
2022/01/08 01:25:04;;;;;;;12.95;7.35;;;;;;;;;;4978517;28;94308;-67
2022/01/08 01:28:38;;;;;;;;;;;;;;;;;;4981079;28;92865;-67
2022/01/08 01:30:51;;;;;;;13.50;7.15;;;;;;;;;;4981342;28;123189;-67
2022/01/08 01:41:27;;;;;;;9.90;5.22;;;;;;;;;;4989106;28;92995;-68
2022/01/08 01:47:03;;;;;;;15.23;5.20;;;;;;;;;;4970935;28;93868;-68
2022/01/08 01:49:34;;;;;;;11.55;5.85;;;;;;;;;;4974132;28;95029;-68
2022/01/08 01:52:01;;;;;;;8.82;4.80;;;;;;;;;;4983007;28;96166;-68
2022/01/08 01:54:28;;;;;;;10.77;5.18;;;;;;;;;;4979895;28;94237;-67
2022/01/08 01:56:55;;;;;;;8.88;5.18;;;;;;;;;;4979802;28;92555;-67
2022/01/08 01:59:22;;;;;;;10.88;5.38;;;;;;;;;;4973498;28;94277;-68
2022/01/08 02:01:48;;;;;;;8.75;5.70;;;;;;;;;;4978821;28;92969;-68
2022/01/08 02:04:15;;;;;;;11.30;5.28;;;;;;;;;;4984708;28;93968;-68
2022/01/08 02:06:41;;;;;;;9.00;6.32;;;;;;;;;;4979571;28;92891;-67
2022/01/08 02:09:07;;;;;;;8.43;5.68;;;;;;;;;;4978363;28;92465;-67
2022/01/08 02:11:34;;;;;;;11.80;6.22;;;;;;;;;;4974690;28;94261;-67
2022/01/08 02:14:00;;;;;;;11.32;6.00;;;;;;;;;;4982426;28;95338;-68
2022/01/08 02:16:27;;;;;;;16.17;6.07;;;;;;;;;;4981405;28;92521;-67
2022/01/08 02:18:53;;;;;;;7.97;6.15;;;;;;;;;;4980837;28;93354;-67
2022/01/08 02:21:20;;;;;;;11.57;6.32;;;;;;;;;;4980581;28;92579;-67
2022/01/08 02:23:48;;;;;;;13.88;6.40;;;;;;;;;;4980658;28;93535;-66
2022/01/08 02:26:14;;;;;;;12.40;6.57;;;;;;;;;;4974016;28;93421;-67
2022/01/08 02:28:41;;;;;;;19.58;6.57;;;;;;;;;;4975112;28;93917;-68
2022/01/08 02:31:18;;;;;;;12.02;6.72;;;;;;;;;;4981702;28;93238;-67
2022/01/08 02:33:45;;;;;;;14.35;7.03;;;;;;;;;;4980686;28;94193;-67
2022/01/08 02:36:11;;;;;;;19.33;7.10;;;;;;;;;;4973444;28;92802;-67
2022/01/08 02:38:38;;;;;;;21.65;8.18;;;;;;;;;;4979753;28;95018;-68
2022/01/08 02:41:06;;;;;;;18.88;6.90;;;;;;;;;;4976980;28;94110;-68
2022/01/08 02:43:40;;;;;;;7.97;7.10;;;;;;;;;;4984125;28;93401;-67
2022/01/08 02:46:07;;;;;;;7.78;6.32;;;;;;;;;;4973737;28;94047;-67
2022/01/08 02:48:33;;;;;;;12.00;6.75;;;;;;;;;;4979933;28;92788;-68
2022/01/08 02:51:00;;;;;;;11.40;5.72;;;;;;;;;;4975776;28;92488;-67
2022/01/08 02:53:26;;;;;;;13.30;6.32;;;;;;;;;;4978954;28;94107;-67
2022/01/08 02:55:52;;;;;;;15.02;6.78;;;;;;;;;;4979477;28;92081;-67
2022/01/08 02:58:19;;;;;;;13.43;6.25;;;;;;;;;;4983738;28;93193;-67
2022/01/08 03:00:45;;;;;;;11.20;6.00;;;;;;;;;;4986717;28;94166;-68
2022/01/08 03:03:12;;;;;;;9.35;6.30;;;;;;;;;;4987084;28;94897;-67
2022/01/08 03:05:39;;;;;;;14.82;5.90;;;;;;;;;;4986053;28;93187;-67
2022/01/08 03:08:05;;;;;;;27.60;7.55;;;;;;;;;;4989769;28;92583;-67
2022/01/08 03:10:32;;;;;;;13.30;6.05;;;;;;;;;;4983412;28;93205;-67
2022/01/08 03:12:58;;;;;;;10.25;6.53;;;;;;;;;;4983975;28;94897;-67
2022/01/08 03:15:25;;;;;;;18.65;7.75;;;;;;;;;;4982864;28;92588;-67
2022/01/08 03:17:51;;;;;;;12.50;6.20;;;;;;;;;;4987415;28;94788;-67
2022/01/08 03:20:18;;;;;;;11.88;6.30;;;;;;;;;;4977827;28;93669;-67
2022/01/08 03:22:45;;;;;;;9.90;6.85;;;;;;;;;;4979012;28;92476;-68
2022/01/08 03:25:12;;;;;;;15.57;6.47;;;;;;;;;;4984105;28;95813;-68
2022/01/08 03:27:41;;;;;;;12.73;6.07;;;;;;;;;;4985813;28;95190;-68
2022/01/08 03:30:10;;;;;;;16.02;6.30;;;;;;;;;;4985502;28;92481;-68
2022/01/08 03:32:36;;;;;;;10.88;6.03;;;;;;;;;;4981449;28;95150;-68
2022/01/08 03:35:03;;;;;;;10.88;6.07;;;;;;;;;;4983902;28;92563;-68
2022/01/08 03:37:29;;;;;;;10.88;5.82;;;;;;;;;;4983485;28;93919;-68
2022/01/08 03:39:55;;;;;;;12.77;6.55;;;;;;;;;;4985103;28;94101;-66
2022/01/08 03:42:22;;;;;;;16.13;7.35;;;;;;;;;;4983743;28;92582;-66
2022/01/08 03:44:48;;;;;;;11.80;6.15;;;;;;;;;;4989729;28;96008;-67
2022/01/08 03:49:53;;;;;;;11.60;6.35;;;;;;;;;;4982161;28;94180;-67
2022/01/08 03:52:20;;;;;;;7.75;5.65;;;;;;;;;;4983103;28;96790;-67
2022/01/08 03:54:46;;;;;;;19.05;6.30;;;;;;;;;;4979527;28;93059;-67
2022/01/08 03:57:13;;;;;;;10.68;6.57;;;;;;;;;;4979497;28;94037;-67
2022/01/08 03:59:39;;;;;;;12.13;5.78;;;;;;;;;;4981147;28;94729;-67
2022/01/08 04:02:05;;;;;;;12.13;6.88;;;;;;;;;;4982983;28;92513;-67
2022/01/08 04:04:32;;;;;;;16.17;6.78;;;;;;;;;;4979438;28;94187;-67
2022/01/08 04:06:58;;;;;;;14.00;6.70;;;;;;;;;;4985537;28;94319;-67
2022/01/08 04:09:25;;;;;;;10.30;6.00;;;;;;;;;;4983861;28;93303;-67
2022/01/08 04:11:52;;;;;;;14.50;6.82;;;;;;;;;;4985903;28;94176;-66
2022/01/08 04:14:19;;;;;;;13.90;6.10;;;;;;;;;;4985824;28;92490;-66
2022/01/08 04:16:50;;;;;;;13.82;6.15;;;;;;;;;;4983598;28;95295;-66
2022/01/08 04:19:17;;;;;;;15.82;5.90;;;;;;;;;;4982822;28;93516;-66
2022/01/08 04:21:59;;;;;;;10.13;6.28;;;;;;;;;;4975753;28;92512;-66
2022/01/08 04:24:26;;;;;;;10.05;6.35;;;;;;;;;;4984252;28;94270;-67
2022/01/08 04:26:53;;;;;;;14.60;6.65;;;;;;;;;;4980627;28;94495;-67
2022/01/08 04:29:19;;;;;;;9.90;6.03;;;;;;;;;;4985816;28;93425;-67
2022/01/08 04:31:45;;;;;;;7.70;5.97;;;;;;;;;;4987154;28;93226;-67
2022/01/08 04:34:11;;;;;;;18.38;7.13;;;;;;;;;;4982908;28;91856;-67
2022/01/08 04:36:38;;;;;;;14.13;7.90;;;;;;;;;;4973495;28;93256;-67
2022/01/08 04:39:04;;;;;;;21.63;8.45;;;;;;;;;;4981415;28;93196;-67
2022/01/08 04:41:30;;;;;;;9.63;7.10;;;;;;;;;;4979921;28;96440;-67
2022/01/08 04:43:57;;;;;;;9.38;7.15;;;;;;;;;;4974298;28;95504;-67
2022/01/08 04:46:23;;;;;;;13.68;7.38;;;;;;;;;;4987677;28;94468;-67
2022/01/08 04:48:50;;;;;;;22.73;8.23;;;;;;;;;;4987354;28;92523;-67
2022/01/08 04:51:16;;;;;;;24.52;8.65;;;;;;;;;;4984355;28;94237;-67
2022/01/08 04:53:42;;;;;;;11.23;6.85;;;;;;;;;;4973394;28;92553;-66
2022/01/08 04:56:13;;;;;;;15.93;8.25;;;;;;;;;;4973746;28;93024;-67
2022/01/08 04:58:40;;;;;;;17.88;7.68;;;;;;;;;;4981536;28;92682;-67
2022/01/08 05:01:11;;;;;;;12.63;7.63;;;;;;;;;;4980094;28;92582;-67
2022/01/08 05:03:37;;;;;;;10.43;7.30;;;;;;;;;;4977677;28;93466;-67
2022/01/08 05:06:04;;;;;;;19.00;8.23;;;;;;;;;;4976198;28;96428;-67
2022/01/08 05:08:30;;;;;;;11.13;7.15;;;;;;;;;;4982135;28;93195;-68
2022/01/08 05:10:56;;;;;;;12.05;7.40;;;;;;;;;;4984541;28;94292;-67
2022/01/08 05:13:23;;;;;;;17.85;7.70;;;;;;;;;;4980944;28;92490;-67
2022/01/08 05:15:49;;;;;;;24.95;8.52;;;;;;;;;;4980839;28;92903;-68
2022/01/08 05:18:15;;;;;;;13.60;6.22;;;;;;;;;;4984757;28;94220;-67
2022/01/08 05:20:50;;;;;;;10.38;6.72;;;;;;;;;;4980305;28;94298;-68
2022/01/08 05:23:17;;;;;;;9.25;6.65;;;;;;;;;;4976856;28;93257;-67
2022/01/08 05:25:43;;;;;;;21.58;7.75;;;;;;;;;;4982300;28;92460;-68
2022/01/08 05:28:09;;;;;;;15.10;7.10;;;;;;;;;;4980711;28;92574;-67
2022/01/08 05:30:36;;;;;;;11.20;6.57;;;;;;;;;;4974422;28;96398;-67
2022/01/08 05:33:02;;;;;;;16.00;7.72;;;;;;;;;;4984913;28;94197;-67
2022/01/08 05:35:29;;;;;;;22.42;8.15;;;;;;;;;;4987266;28;93910;-68
2022/01/08 05:37:55;;;;;;;16.80;7.63;;;;;;;;;;4981914;28;94341;-67
2022/01/08 05:40:22;;;;;;;16.67;8.18;;;;;;;;;;4980048;28;92512;-67
2022/01/08 05:42:48;;;;;;;19.63;7.32;;;;;;;;;;4973268;28;93345;-67
2022/01/08 05:45:15;;;;;;;15.93;6.47;;;;;;;;;;4982848;28;93969;-67
2022/01/08 05:47:41;;;;;;;10.13;5.78;;;;;;;;;;4975835;28;92073;-66
2022/01/08 05:50:08;;;;;;;18.05;7.15;;;;;;;;;;4981477;28;93990;-67
2022/01/08 05:52:34;;;;;;;9.60;5.28;;;;;;;;;;4992695;28;94739;-67
2022/01/08 05:55:01;;;;;;;19.95;6.22;;;;;;;;;;4981896;28;95311;-68
2022/01/08 05:57:27;;;;;;;10.88;5.50;;;;;;;;;;4980719;28;93865;-67
2022/01/08 05:59:53;;;;;;;11.77;5.93;;;;;;;;;;4981349;28;92838;-67
2022/01/08 06:02:20;;;;;;;18.65;6.00;;;;;;;;;;4980235;28;93216;-67
2022/01/08 06:04:46;;;;;;;12.93;5.70;;;;;;;;;;4974422;28;93553;-67
2022/01/08 06:07:14;;;;;;;11.18;5.10;;;;;;;;;;4980821;28;92576;-67
2022/01/08 06:09:40;;;;;;;17.02;5.35;;;;;;;;;;4975896;28;93001;-67
2022/01/08 06:12:07;;;;;;;12.02;5.40;;;;;;;;;;4975919;28;93402;-68
2022/01/08 06:14:33;;;;;;;22.10;5.70;;;;;;;;;;4981826;28;94788;-67
2022/01/08 06:17:00;;;;;;;16.25;5.82;;;;;;;;;;4977435;28;94124;-67
2022/01/08 06:19:27;;;;;;;12.10;4.93;;;;;;;;;;4976596;28;94937;-66
2022/01/08 06:21:53;;;;;;;15.75;5.63;;;;;;;;;;4979818;28;96721;-66
2022/01/08 06:24:20;;;;;;;22.30;5.80;;;;;;;;;;4983288;28;94123;-67
2022/01/08 06:26:46;;;;;;;20.65;6.43;;;;;;;;;;4980320;28;93010;-66
2022/01/08 06:29:12;;;;;;;16.63;5.35;;;;;;;;;;4977124;28;94832;-67
2022/01/08 06:31:39;;;;;;;14.45;6.28;;;;;;;;;;4984910;28;93775;-67
2022/01/08 06:34:05;;;;;;;8.85;6.10;;;;;;;;;;4977254;28;93154;-67
2022/01/08 06:36:31;;;;;;;15.18;5.93;;;;;;;;;;4984282;28;94099;-66
2022/01/08 06:38:58;;;;;;;15.07;5.57;;;;;;;;;;4987027;28;94187;-66
2022/01/08 06:41:24;;;;;;;15.45;6.72;;;;;;;;;;4982069;28;93710;-66
2022/01/08 06:43:51;;;;;;;16.70;6.25;;;;;;;;;;4977338;28;96379;-67
2022/01/08 06:46:17;;;;;;;15.30;7.13;;;;;;;;;;4979558;28;92564;-67
2022/01/08 06:48:43;;;;;;;16.15;7.38;;;;;;;;;;4986163;28;94558;-67
2022/01/08 06:51:10;;;;;;;14.57;7.05;;;;;;;;;;4990871;28;93915;-67
2022/01/08 06:53:36;;;;;;;14.27;6.97;;;;;;;;;;4982669;28;92996;-67
2022/01/08 06:56:03;;;;;;;15.35;7.63;;;;;;;;;;4979099;28;93172;-68
2022/01/08 06:58:29;;;;;;;14.60;6.82;;;;;;;;;;4986143;28;93194;-67
2022/01/08 07:00:56;;;;;;;18.35;8.73;;;;;;;;;;4989494;28;91688;-67
2022/01/08 07:03:22;;;;;;;14.60;7.88;;;;;;;;;;4979905;28;94044;-67
2022/01/08 07:05:49;;;;;;;8.35;6.88;;;;;;;;;;4979085;28;93961;-68
2022/01/08 07:08:15;;;;;;;9.52;7.43;;;;;;;;;;4990230;28;95145;-68
2022/01/08 07:10:42;;;;;;;12.63;7.00;;;;;;;;;;4982861;28;94642;-68
2022/01/08 07:13:08;;;;;;;10.05;5.93;;;;;;;;;;4984042;28;92529;-67
2022/01/08 07:15:35;;;;;;;15.50;6.47;;;;;;;;;;4982983;28;92563;-67
2022/01/08 07:18:01;;;;;;;10.30;5.80;;;;;;;;;;4983565;28;94141;-67
2022/01/08 07:20:28;;;;;;;7.65;5.38;;;;;;;;;;4978151;28;93118;-67
2022/01/08 07:22:54;;;;;;;16.15;6.22;;;;;;;;;;4976139;28;94433;-67
2022/01/08 07:25:20;;;;;;;16.45;6.53;;;;;;;;;;4983245;28;91887;-67
2022/01/08 07:27:47;;;;;;;24.13;6.75;;;;;;;;;;4975254;28;93120;-67
2022/01/08 07:30:18;;;;;;;15.27;6.05;;;;;;;;;;4975523;28;93804;-67
2022/01/08 07:32:46;;;;;;;14.45;6.57;;;;;;;;;;4980218;28;94843;-67
2022/01/08 07:35:14;;;;;;;21.80;6.75;;;;;;;;;;4983503;28;96530;-67
2022/01/08 07:37:42;;;;;;;12.40;6.57;;;;;;;;;;4981747;28;93125;-67
2022/01/08 07:40:09;;;;;;;11.95;6.40;;;;;;;;;;4983705;28;92530;-68
2022/01/08 07:42:35;;;;;;;11.32;5.80;;;;;;;;;;4982598;28;93135;-68
2022/01/08 07:45:02;;;;;;;12.45;5.40;;;;;;;;;;4981285;28;93136;-68
2022/01/08 07:47:29;;;;;;;10.50;5.53;;;;;;;;;;4976212;28;94248;-68
2022/01/08 07:49:55;;;;;;;11.00;5.85;;;;;;;;;;4986897;28;93680;-68
2022/01/08 07:52:22;;;;;;;13.82;6.03;;;;;;;;;;4983462;28;92486;-68
2022/01/08 07:54:48;;;;;;;16.02;6.00;;;;;;;;;;4975183;28;93898;-68
2022/01/08 07:57:15;;;;;;;12.65;5.65;;;;;;;;;;4980810;28;96958;-68
2022/01/08 07:59:42;;;;;;;13.85;4.97;;;;;;;;;;4982862;28;92548;-69
2022/01/08 08:02:09;;;;;;;13.82;5.32;;;;;;;;;;4988184;28;93638;-69
2022/01/08 08:04:35;;;;;;;17.10;6.35;;;;;;;;;;4985268;28;94629;-68
2022/01/08 08:07:03;;;;;;;9.95;5.25;;;;;;;;;;4974628;28;93488;-68
2022/01/08 08:09:29;;;;;;;21.33;7.20;;;;;;;;;;4981105;28;93203;-68
2022/01/08 08:11:55;;;;;;;17.45;6.28;;;;;;;;;;4975075;28;93040;-68
2022/01/08 08:14:22;;;;;;;13.15;7.35;;;;;;;;;;4983236;28;93869;-68
2022/01/08 08:16:48;;;;;;;11.00;6.20;;;;;;;;;;4982753;28;94558;-68
2022/01/08 08:19:14;;;;;;;12.73;7.07;;;;;;;;;;4974002;28;94868;-69
2022/01/08 08:21:41;;;;;;;13.50;6.38;;;;;;;;;;4973233;28;95109;-68
2022/01/08 08:24:07;;;;;;;16.40;7.28;;;;;;;;;;4973954;28;94170;-69
2022/01/08 08:26:34;;;;;;;10.98;8.43;;;;;;;;;;4976997;28;92938;-68
2022/01/08 08:29:01;;;;;;;16.65;8.25;;;;;;;;;;4974596;28;94247;-68
2022/01/08 08:31:27;;;;;;;20.05;8.38;;;;;;;;;;4980285;28;92438;-68
2022/01/08 08:33:53;;;;;;;22.58;9.73;;;;;;;;;;4975607;28;93230;-68
2022/01/08 08:36:20;;;;;;;15.57;8.18;;;;;;;;;;4980056;28;94145;-68
2022/01/08 08:38:46;;;;;;;12.70;8.57;;;;;;;;;;4991815;28;93224;-68
2022/01/08 08:41:13;;;;;;;21.25;9.95;;;;;;;;;;4980247;28;92512;-68
2022/01/08 08:43:39;;;;;;;15.32;9.45;;;;;;;;;;4973583;28;94967;-68
2022/01/08 08:46:06;;;;;;;19.55;8.73;;;;;;;;;;4978976;28;94826;-69
2022/01/08 08:48:33;;;;;;;12.77;8.20;;;;;;;;;;4979460;28;96830;-68
2022/01/08 08:50:59;;;;;;;16.42;8.77;;;;;;;;;;4979815;28;92574;-68
2022/01/08 08:53:26;;;;;;;19.15;9.48;;;;;;;;;;4980523;28;94037;-68
2022/01/08 08:55:52;;;;;;;24.05;9.15;;;;;;;;;;4972880;28;93697;-68
2022/01/08 08:58:18;;;;;;;19.77;9.07;;;;;;;;;;4972986;28;92553;-68
2022/01/08 09:00:45;;;;;;;16.15;8.57;;;;;;;;;;4976164;28;92989;-68
2022/01/08 09:03:12;;;;;;;18.58;9.77;;;;;;;;;;4992763;28;92640;-68
2022/01/08 09:05:39;;;;;;;15.45;9.00;;;;;;;;;;4975444;28;92627;-69
2022/01/08 09:08:05;;;;;;;16.00;9.13;;;;;;;;;;4980679;28;93399;-69
2022/01/08 09:10:33;;;;;;;18.90;8.98;;;;;;;;;;4972286;28;94830;-68
2022/01/08 09:12:59;;;;;;;19.67;9.15;;;;;;;;;;4973291;28;97139;-69
2022/01/08 09:15:26;;;;;;;18.45;9.20;;;;;;;;;;4979359;28;94426;-69
2022/01/08 09:17:56;;;;;;;20.80;8.25;;;;;;;;;;4984485;28;92539;-68
2022/01/08 09:20:26;;;;;;;27.30;10.45;;;;;;;;;;4985796;28;94128;-68
2022/01/08 09:22:53;;;;;;;23.35;11.52;;;;;;;;;;4975131;28;94288;-68
2022/01/08 09:25:20;;;;;;;20.02;9.05;;;;;;;;;;4980071;28;92469;-68
2022/01/08 09:27:46;;;;;;;17.00;10.05;;;;;;;;;;4984131;28;92336;-68
2022/01/08 09:30:13;;;;;;;20.45;10.52;;;;;;;;;;4976269;28;93325;-68
2022/01/08 09:32:41;;;;;;;15.55;9.43;;;;;;;;;;4980840;28;93977;-68
2022/01/08 09:35:07;;;;;;;15.80;9.90;;;;;;;;;;4975185;28;96613;-68
2022/01/08 09:37:37;;;;;;;21.08;10.05;;;;;;;;;;4975668;28;92514;-68
2022/01/08 09:40:05;;;;;;;14.18;10.75;;;;;;;;;;4989944;28;94178;-68
2022/01/08 09:42:31;;;;;;;20.50;11.48;;;;;;;;;;4979568;28;93245;-68
2022/01/08 09:44:57;;;;;;;27.55;11.40;;;;;;;;;;4979145;28;94648;-68
2022/01/08 09:47:24;;;;;;;22.95;11.73;;;;;;;;;;4979779;28;95345;-68
2022/01/08 09:49:50;;;;;;;21.35;11.27;;;;;;;;;;4986276;28;94341;-68
2022/01/08 09:52:17;;;;;;;19.92;11.15;;;;;;;;;;4985003;28;91926;-69
2022/01/08 09:54:43;;;;;;;26.30;10.75;;;;;;;;;;4981638;28;93341;-68
2022/01/08 09:57:10;;;;;;;15.95;11.20;;;;;;;;;;4989990;28;92547;-68
2022/01/08 09:59:36;;;;;;;20.60;11.30;;;;;;;;;;4983995;28;95914;-68
2022/01/08 10:02:03;;;;;;;20.20;11.95;;;;;;;;;;4984835;28;95369;-68
2022/01/08 10:04:31;;;;;;;21.00;10.98;;;;;;;;;;4983664;28;92485;-69
2022/01/08 10:07:16;;;;;;;20.63;12.02;;;;;;;;;;4971956;28;93356;-67
2022/01/08 10:10:01;;;;;;;17.33;11.30;;;;;;;;;;4973782;28;94694;-68
2022/01/08 10:12:35;;;;;;;15.32;10.75;;;;;;;;;;4979733;28;92539;-68
2022/01/08 10:17:46;;;;;;;19.33;12.27;;;;;;;;;;4988538;28;91716;-67
2022/01/08 10:20:25;;;;;;;27.10;11.35;;;;;;;;;;4978432;28;93507;-67
2022/01/08 10:23:03;;;;;;;16.70;10.15;;;;;;;;;;4978393;28;93794;-68
2022/01/08 10:25:29;;;;;;;23.85;11.63;;;;;;;;;;4980893;28;94909;-68
2022/01/08 10:27:55;;;;;;;19.10;11.75;;;;;;;;;;4981947;28;96792;-67
2022/01/08 10:30:25;;;;;;;19.38;10.93;;;;;;;;;;4978266;28;94227;-67
2022/01/08 10:32:59;;;;;;;19.40;11.90;;;;;;;;;;4975309;28;92499;-67
2022/01/08 10:35:45;;;;;;;18.55;11.13;;;;;;;;;;4976261;28;94234;-68
2022/01/08 10:38:11;;;;;;;16.10;11.40;;;;;;;;;;4979396;28;93812;-68
2022/01/08 10:40:38;;;;;;;19.75;10.00;;;;;;;;;;4982795;28;93932;-68
2022/01/08 10:43:27;;;;;;;13.40;10.52;;;;;;;;;;4974096;28;93497;-68
2022/01/08 10:45:55;;;;;;;18.67;11.35;;;;;;;;;;4976530;28;93428;-68
2022/01/08 10:48:31;;;;;;;17.13;10.38;;;;;;;;;;4976318;28;94020;-68
2022/01/08 10:51:10;;;;;;;21.48;11.85;;;;;;;;;;4974041;28;95965;-69
2022/01/08 10:53:50;;;;;;;22.48;11.63;;;;;;;;;;4984178;28;92503;-68
2022/01/08 10:56:20;;;;;;;16.52;12.63;;;;;;;;;;4973679;28;94201;-68
2022/01/08 10:58:52;;;;;;;17.10;10.98;;;;;;;;;;4974292;28;94810;-69
2022/01/08 11:01:37;;;;;;;15.43;12.50;;;;;;;;;;4979161;28;92526;-69
2022/01/08 11:04:04;;;;;;;23.08;10.20;;;;;;;;;;4981900;28;94391;-69
2022/01/08 11:06:30;;;;;;;17.65;11.48;;;;;;;;;;4985357;28;94300;-69
2022/01/08 11:09:00;;;;;;;20.98;10.65;;;;;;;;;;4985454;28;93348;-69
2022/01/08 11:11:30;;;;;;;22.48;11.35;;;;;;;;;;4988606;28;93968;-68
2022/01/08 11:14:07;;;;;;;16.38;10.25;;;;;;;;;;4991077;28;92429;-68
2022/01/08 11:16:36;;;;;;;23.95;9.82;;;;;;;;;;4982960;28;95110;-68
2022/01/08 11:19:03;;;;;;;14.50;9.10;;;;;;;;;;4984297;28;94284;-68
2022/01/08 11:21:30;;;;;;;21.17;9.77;;;;;;;;;;4994909;28;92878;-68
2022/01/08 11:23:59;;;;;;;19.20;10.40;;;;;;;;;;4991580;28;94465;-68
2022/01/08 11:26:26;;;;;;;14.40;9.70;;;;;;;;;;4975649;28;92532;-68
2022/01/08 11:28:55;;;;;;;14.95;10.35;;;;;;;;;;4980456;28;93918;-69
2022/01/08 11:31:22;;;;;;;14.65;9.57;;;;;;;;;;4993959;28;94815;-68
2022/01/08 11:33:55;;;;;;;11.40;9.60;;;;;;;;;;4991955;28;92852;-68
2022/01/08 11:36:23;;;;;;;15.82;9.68;;;;;;;;;;4988741;28;93624;-68
2022/01/08 11:38:49;;;;;;;15.55;9.35;;;;;;;;;;4978097;28;94704;-68
2022/01/08 11:41:19;;;;;;;16.23;10.98;;;;;;;;;;4980094;28;94923;-68
2022/01/08 11:43:49;;;;;;;15.25;9.88;;;;;;;;;;4980659;28;96820;-69
2022/01/08 11:46:16;;;;;;;23.60;9.38;;;;;;;;;;4975044;28;92594;-68
2022/01/08 11:48:47;;;;;;;13.18;10.25;;;;;;;;;;4974468;28;93200;-69
2022/01/08 11:51:15;;;;;;;21.17;11.35;;;;;;;;;;4974479;28;93415;-69
2022/01/08 11:53:45;;;;;;;16.23;10.43;;;;;;;;;;4974010;28;92606;-69
2022/01/08 11:56:25;;;;;;;17.77;10.85;;;;;;;;;;4982407;28;92851;-69
2022/01/08 11:59:05;;;;;;;19.77;11.00;;;;;;;;;;4987956;28;93604;-69
2022/01/08 12:01:32;;;;;;;22.52;11.32;;;;;;;;;;4973590;28;92756;-69
2022/01/08 12:03:58;;;;;;;17.83;10.98;;;;;;;;;;4975707;28;93916;-69
2022/01/08 12:06:30;;;;;;;19.80;10.45;;;;;;;;;;4980385;28;96562;-69
2022/01/08 12:09:00;;;;;;;15.43;11.40;;;;;;;;;;4973747;28;96445;-69
2022/01/08 12:11:31;;;;;;;23.23;11.32;;;;;;;;;;4974133;28;93996;-69
2022/01/08 12:14:07;;;;;;;15.40;11.60;;;;;;;;;;4975410;28;93065;-69
2022/01/08 12:16:37;;;;;;;14.60;8.73;;;;;;;;;;4973413;28;93126;-69
2022/01/08 12:19:04;;;;;;;16.70;10.43;;;;;;;;;;4982736;28;92626;-68
2022/01/08 12:21:37;;;;;;;16.67;9.15;;;;;;;;;;4974412;28;92573;-68
2022/01/08 12:24:22;;;;;;;17.05;11.30;;;;;;;;;;4991062;28;95551;-69
2022/01/08 12:26:48;;;;;;;14.13;10.18;;;;;;;;;;4975610;28;93597;-68
2022/01/08 12:29:34;;;;;;;16.02;9.85;;;;;;;;;;4976391;28;92693;-69
2022/01/08 12:32:19;;;;;;;20.38;10.10;;;;;;;;;;4973570;28;96661;-69
2022/01/08 12:34:48;;;;;;;12.40;7.95;;;;;;;;;;4974467;28;93089;-68
2022/01/08 12:37:16;;;;;;;17.33;10.50;;;;;;;;;;4973966;28;93224;-67
2022/01/08 12:39:48;;;;;;;16.40;9.82;;;;;;;;;;4975443;28;93644;-69
2022/01/08 12:42:24;;;;;;;17.88;9.88;;;;;;;;;;4987137;28;92521;-68
2022/01/08 12:44:56;;;;;;;16.10;10.48;;;;;;;;;;4985848;28;93890;-68
2022/01/08 12:47:37;;;;;;;10.68;9.00;;;;;;;;;;4985509;28;93450;-68
2022/01/08 12:50:24;;;;;;;19.58;9.52;;;;;;;;;;4980157;28;93296;-68
2022/01/08 12:53:05;;;;;;;19.55;10.75;;;;;;;;;;4983949;28;93214;-69
2022/01/08 12:55:33;;;;;;;15.38;9.77;;;;;;;;;;4982200;28;92602;-69
2022/01/08 12:57:59;;;;;;;13.55;9.27;;;;;;;;;;4981694;28;95541;-69
2022/01/08 13:00:26;;;;;;;16.30;10.48;;;;;;;;;;4976860;28;92725;-69
2022/01/08 13:02:52;;;;;;;15.75;9.65;;;;;;;;;;4980058;28;92481;-68
2022/01/08 13:05:19;;;;;;;14.95;8.95;;;;;;;;;;4979021;28;93601;-68
2022/01/08 13:07:49;;;;;;;11.77;9.00;;;;;;;;;;4974072;28;95058;-68
2022/01/08 13:10:16;;;;;;;13.63;8.38;;;;;;;;;;4974399;28;93949;-68
2022/01/08 13:12:43;;;;;;;13.98;9.10;;;;;;;;;;4982826;28;94376;-68
2022/01/08 13:15:09;;;;;;;15.02;9.85;;;;;;;;;;4978803;28;92756;-68
2022/01/08 13:17:35;;;;;;;17.52;8.88;;;;;;;;;;4984941;28;93250;-68
2022/01/08 13:20:06;;;;;;;11.55;8.18;;;;;;;;;;4982262;28;94164;-68
2022/01/08 13:22:33;;;;;;;10.70;8.27;;;;;;;;;;4985657;28;94908;-68
2022/01/08 13:24:59;;;;;;;9.57;8.13;;;;;;;;;;4979677;28;96616;-68
2022/01/08 13:27:27;;;;;;;11.65;7.18;;;;;;;;;;4976186;28;94377;-68
2022/01/08 13:29:54;;;;;;;10.35;7.10;;;;;;;;;;4979660;28;93840;-68
2022/01/08 13:32:22;;;;;;;14.35;7.75;;;;;;;;;;4983202;28;93988;-68
2022/01/08 13:34:55;;;;;;;11.55;6.15;;;;;;;;;;4976611;28;93198;-68
2022/01/08 13:37:22;;;;;;;10.93;7.60;;;;;;;;;;4977507;28;93678;-69
2022/01/08 13:39:54;;;;;;;8.95;5.90;;;;;;;;;;4973801;28;92460;-69
2022/01/08 13:42:22;;;;;;;10.52;6.18;;;;;;;;;;4981568;28;94294;-69
2022/01/08 13:45:07;;;;;;;10.68;6.82;;;;;;;;;;4974212;28;93980;-69
2022/01/08 13:47:44;;;;;;;8.07;6.00;;;;;;;;;;4982865;28;96548;-69
2022/01/08 13:50:14;;;;;;;12.32;6.18;;;;;;;;;;4986859;28;93018;-69
2022/01/08 13:52:42;;;;;;;9.40;6.40;;;;;;;;;;4994567;28;93975;-68
2022/01/08 13:55:13;;;;;;;6.28;4.68;;;;;;;;;;4972999;28;94690;-68
2022/01/08 13:57:40;;;;;;;8.88;5.30;;;;;;;;;;4978822;28;92576;-69
2022/01/08 14:00:10;;;;;;;6.55;5.35;;;;;;;;;;4981639;28;94573;-68
2022/01/08 14:02:37;;;;;;;10.68;7.32;;;;;;;;;;4972055;28;92423;-69
2022/01/08 14:05:04;;;;;;;5.20;4.68;;;;;;;;;;4984827;28;95325;-68
2022/01/08 14:07:37;;;;;;;5.90;4.57;;;;;;;;;;4972620;28;94269;-68
2022/01/08 14:10:04;;;;;;;6.13;4.18;;;;;;;;;;4982926;28;94592;-68
2022/01/08 14:12:31;;;;;;;10.20;4.80;;;;;;;;;;4979588;28;94885;-69
2022/01/08 14:15:03;;;;;;;8.02;3.95;;;;;;;;;;4976922;28;94419;-69
2022/01/08 14:17:30;;;;;;;10.45;4.10;;;;;;;;;;4973464;28;92537;-68
2022/01/08 14:19:58;;;;;;;9.07;4.53;;;;;;;;;;4979833;28;94248;-69
2022/01/08 14:22:24;;;;;;;8.77;4.50;;;;;;;;;;4977426;28;93328;-69
2022/01/08 14:24:51;;;;;;;5.72;3.90;;;;;;;;;;4973561;28;93988;-68
2022/01/08 14:27:19;;;;;;;11.75;3.67;;;;;;;;;;4972883;28;94554;-68
2022/01/08 14:29:47;;;;;;;5.30;3.70;;;;;;;;;;4976100;28;91789;-69
2022/01/08 14:32:16;;;;;;;4.13;3.83;;;;;;;;;;4973761;28;93193;-68
2022/01/08 14:34:45;;;;;;;5.65;2.90;;;;;;;;;;4980863;28;94108;-68
2022/01/08 14:37:16;;;;;;;6.03;3.80;;;;;;;;;;4979944;28;94898;-68
2022/01/08 14:39:43;;;;;;;3.80;3.08;;;;;;;;;;4973010;28;96764;-68
2022/01/08 14:42:12;;;;;;;5.85;3.20;;;;;;;;;;4976938;28;93115;-68
2022/01/08 14:44:40;;;;;;;4.38;3.40;;;;;;;;;;4972518;28;94093;-67
2022/01/08 14:47:07;;;;;;;6.10;3.70;;;;;;;;;;4973366;28;93556;-68
2022/01/08 14:49:33;;;;;;;4.35;3.08;;;;;;;;;;4979323;28;92654;-68
2022/01/08 14:52:00;;;;;;;9.63;3.40;;;;;;;;;;4978736;28;94426;-68